sensor_id;sensor_type;location;lat;lon;timestamp;P1;P2;P0
70554;PMS5003;58104;52.744;15.242;2023-09-07T00:02:13;21;21;
70554;PMS5003;58104;52.744;15.242;2023-09-07T00:04:38;22;22;
70554;PMS5003;58104;52.744;15.242;2023-09-07T00:07:04;22;19;
70554;PMS5003;58104;52.744;15.242;2023-09-07T00:09:29;20;20;
70554;PMS5003;58104;52.744;15.242;2023-09-07T00:11:55;23;23;
70554;PMS5003;58104;52.744;15.242;2023-09-07T00:14:21;23;20;
70554;PMS5003;58104;52.744;15.242;2023-09-07T00:16:46;19;19;
70554;PMS5003;58104;52.744;15.242;2023-09-07T00:19:11;25;22;
70554;PMS5003;58104;52.744;15.242;2023-09-07T00:21:37;24;19;
70554;PMS5003;58104;52.744;15.242;2023-09-07T00:24:02;25;24;
70554;PMS5003;58104;52.744;15.242;2023-09-07T00:26:27;24;24;
70554;PMS5003;58104;52.744;15.242;2023-09-07T00:28:53;24;24;
70554;PMS5003;58104;52.744;15.242;2023-09-07T00:31:19;22;22;
70554;PMS5003;58104;52.744;15.242;2023-09-07T00:33:44;26;24;
70554;PMS5003;58104;52.744;15.242;2023-09-07T00:36:10;23;22;
70554;PMS5003;58104;52.744;15.242;2023-09-07T00:38:35;23;21;
70554;PMS5003;58104;52.744;15.242;2023-09-07T00:41:01;20;20;
70554;PMS5003;58104;52.744;15.242;2023-09-07T00:43:26;21;19;
70554;PMS5003;58104;52.744;15.242;2023-09-07T00:45:52;27;26;
70554;PMS5003;58104;52.744;15.242;2023-09-07T00:48:17;24;22;
70554;PMS5003;58104;52.744;15.242;2023-09-07T00:50:43;19;19;
70554;PMS5003;58104;52.744;15.242;2023-09-07T00:53:08;24;21;
70554;PMS5003;58104;52.744;15.242;2023-09-07T00:55:34;23;23;
70554;PMS5003;58104;52.744;15.242;2023-09-07T00:57:59;24;22;
70554;PMS5003;58104;52.744;15.242;2023-09-07T01:00:24;19;19;
70554;PMS5003;58104;52.744;15.242;2023-09-07T01:02:49;22;22;
70554;PMS5003;58104;52.744;15.242;2023-09-07T01:05:14;23;23;
70554;PMS5003;58104;52.744;15.242;2023-09-07T01:07:46;24;24;
70554;PMS5003;58104;52.744;15.242;2023-09-07T01:10:05;20;19;
70554;PMS5003;58104;52.744;15.242;2023-09-07T01:12:31;21;21;
70554;PMS5003;58104;52.744;15.242;2023-09-07T01:14:56;26;26;
70554;PMS5003;58104;52.744;15.242;2023-09-07T01:17:21;27;26;
70554;PMS5003;58104;52.744;15.242;2023-09-07T01:19:48;24;22;
70554;PMS5003;58104;52.744;15.242;2023-09-07T01:22:12;27;23;
70554;PMS5003;58104;52.744;15.242;2023-09-07T01:24:37;29;25;
70554;PMS5003;58104;52.744;15.242;2023-09-07T01:27:02;22;22;
70554;PMS5003;58104;52.744;15.242;2023-09-07T01:29:28;24;22;
70554;PMS5003;58104;52.744;15.242;2023-09-07T01:31:53;24;22;
70554;PMS5003;58104;52.744;15.242;2023-09-07T01:34:19;24;22;
70554;PMS5003;58104;52.744;15.242;2023-09-07T01:36:44;24;24;
70554;PMS5003;58104;52.744;15.242;2023-09-07T01:39:09;25;22;
70554;PMS5003;58104;52.744;15.242;2023-09-07T01:41:34;28;25;
70554;PMS5003;58104;52.744;15.242;2023-09-07T01:43:59;20;18;
70554;PMS5003;58104;52.744;15.242;2023-09-07T01:46:25;20;20;
70554;PMS5003;58104;52.744;15.242;2023-09-07T01:48:50;26;25;
70554;PMS5003;58104;52.744;15.242;2023-09-07T01:51:16;20;20;
70554;PMS5003;58104;52.744;15.242;2023-09-07T01:53:41;24;24;
70554;PMS5003;58104;52.744;15.242;2023-09-07T01:56:06;28;27;
70554;PMS5003;58104;52.744;15.242;2023-09-07T01:58:32;25;23;
70554;PMS5003;58104;52.744;15.242;2023-09-07T02:00:58;27;24;
70554;PMS5003;58104;52.744;15.242;2023-09-07T02:03:23;26;26;
70554;PMS5003;58104;52.744;15.242;2023-09-07T02:05:48;24;22;
70554;PMS5003;58104;52.744;15.242;2023-09-07T02:08:14;21;19;
70554;PMS5003;58104;52.744;15.242;2023-09-07T02:10:39;19;19;
70554;PMS5003;58104;52.744;15.242;2023-09-07T02:13:04;24;23;
70554;PMS5003;58104;52.744;15.242;2023-09-07T02:15:29;20;20;
70554;PMS5003;58104;52.744;15.242;2023-09-07T02:17:54;22;21;
70554;PMS5003;58104;52.744;15.242;2023-09-07T02:20:19;20;18;
70554;PMS5003;58104;52.744;15.242;2023-09-07T02:22:45;22;19;
70554;PMS5003;58104;52.744;15.242;2023-09-07T02:25:10;28;22;
70554;PMS5003;58104;52.744;15.242;2023-09-07T02:27:36;22;22;
70554;PMS5003;58104;52.744;15.242;2023-09-07T02:30:01;20;18;
70554;PMS5003;58104;52.744;15.242;2023-09-07T02:32:26;21;21;
70554;PMS5003;58104;52.744;15.242;2023-09-07T02:34:52;21;20;
70554;PMS5003;58104;52.744;15.242;2023-09-07T02:37:17;21;20;
70554;PMS5003;58104;52.744;15.242;2023-09-07T02:39:42;26;23;
70554;PMS5003;58104;52.744;15.242;2023-09-07T02:42:07;21;20;
70554;PMS5003;58104;52.744;15.242;2023-09-07T02:44:32;21;20;
70554;PMS5003;58104;52.744;15.242;2023-09-07T02:46:58;22;22;
70554;PMS5003;58104;52.744;15.242;2023-09-07T02:49:23;25;22;
70554;PMS5003;58104;52.744;15.242;2023-09-07T02:51:48;23;22;
70554;PMS5003;58104;52.744;15.242;2023-09-07T02:54:14;20;20;
70554;PMS5003;58104;52.744;15.242;2023-09-07T02:56:39;26;24;
70554;PMS5003;58104;52.744;15.242;2023-09-07T02:59:04;24;23;
70554;PMS5003;58104;52.744;15.242;2023-09-07T03:01:30;24;24;
70554;PMS5003;58104;52.744;15.242;2023-09-07T03:03:55;22;22;
70554;PMS5003;58104;52.744;15.242;2023-09-07T03:06:21;23;23;
70554;PMS5003;58104;52.744;15.242;2023-09-07T03:08:46;24;20;
70554;PMS5003;58104;52.744;15.242;2023-09-07T03:11:11;31;27;
70554;PMS5003;58104;52.744;15.242;2023-09-07T03:13:37;29;27;
70554;PMS5003;58104;52.744;15.242;2023-09-07T03:16:03;26;26;
70554;PMS5003;58104;52.744;15.242;2023-09-07T03:18:28;25;21;
70554;PMS5003;58104;52.744;15.242;2023-09-07T03:20:54;23;23;
70554;PMS5003;58104;52.744;15.242;2023-09-07T03:23:19;24;24;
70554;PMS5003;58104;52.744;15.242;2023-09-07T03:25:44;23;23;
70554;PMS5003;58104;52.744;15.242;2023-09-07T03:28:10;24;23;
70554;PMS5003;58104;52.744;15.242;2023-09-07T03:30:35;22;22;
70554;PMS5003;58104;52.744;15.242;2023-09-07T03:33:00;25;25;
70554;PMS5003;58104;52.744;15.242;2023-09-07T03:35:26;26;26;
70554;PMS5003;58104;52.744;15.242;2023-09-07T03:37:51;31;28;
70554;PMS5003;58104;52.744;15.242;2023-09-07T03:40:17;28;28;
70554;PMS5003;58104;52.744;15.242;2023-09-07T03:42:42;30;30;
70554;PMS5003;58104;52.744;15.242;2023-09-07T03:45:08;32;29;
70554;PMS5003;58104;52.744;15.242;2023-09-07T03:47:33;27;27;
70554;PMS5003;58104;52.744;15.242;2023-09-07T03:49:58;31;30;
70554;PMS5003;58104;52.744;15.242;2023-09-07T03:52:23;28;27;
70554;PMS5003;58104;52.744;15.242;2023-09-07T03:54:49;26;26;
70554;PMS5003;58104;52.744;15.242;2023-09-07T03:57:14;29;29;
70554;PMS5003;58104;52.744;15.242;2023-09-07T03:59:39;29;27;
70554;PMS5003;58104;52.744;15.242;2023-09-07T04:02:05;26;25;
70554;PMS5003;58104;52.744;15.242;2023-09-07T04:04:30;26;26;
70554;PMS5003;58104;52.744;15.242;2023-09-07T04:06:55;26;24;
70554;PMS5003;58104;52.744;15.242;2023-09-07T04:09:20;30;29;
70554;PMS5003;58104;52.744;15.242;2023-09-07T04:11:46;28;25;
70554;PMS5003;58104;52.744;15.242;2023-09-07T04:14:11;30;29;
70554;PMS5003;58104;52.744;15.242;2023-09-07T04:16:37;30;30;
70554;PMS5003;58104;52.744;15.242;2023-09-07T04:19:03;28;28;
70554;PMS5003;58104;52.744;15.242;2023-09-07T04:21:28;29;28;
70554;PMS5003;58104;52.744;15.242;2023-09-07T04:23:53;33;33;
70554;PMS5003;58104;52.744;15.242;2023-09-07T04:26:18;30;29;
70554;PMS5003;58104;52.744;15.242;2023-09-07T04:28:43;29;29;
70554;PMS5003;58104;52.744;15.242;2023-09-07T04:31:09;33;33;
70554;PMS5003;58104;52.744;15.242;2023-09-07T04:33:34;36;32;
70554;PMS5003;58104;52.744;15.242;2023-09-07T04:38:26;30;30;
70554;PMS5003;58104;52.744;15.242;2023-09-07T04:40:51;31;30;
70554;PMS5003;58104;52.744;15.242;2023-09-07T04:43:17;32;29;
70554;PMS5003;58104;52.744;15.242;2023-09-07T04:45:45;32;28;
70554;PMS5003;58104;52.744;15.242;2023-09-07T04:48:07;29;26;
70554;PMS5003;58104;52.744;15.242;2023-09-07T04:50:33;32;30;
70554;PMS5003;58104;52.744;15.242;2023-09-07T04:52:58;33;32;
70554;PMS5003;58104;52.744;15.242;2023-09-07T04:55:23;31;30;
70554;PMS5003;58104;52.744;15.242;2023-09-07T04:57:49;38;35;
70554;PMS5003;58104;52.744;15.242;2023-09-07T05:00:14;33;30;
70554;PMS5003;58104;52.744;15.242;2023-09-07T05:02:40;37;34;
70554;PMS5003;58104;52.744;15.242;2023-09-07T05:05:06;33;31;
70554;PMS5003;58104;52.744;15.242;2023-09-07T05:07:31;35;33;
70554;PMS5003;58104;52.744;15.242;2023-09-07T05:09:56;28;26;
70554;PMS5003;58104;52.744;15.242;2023-09-07T05:12:21;33;32;
70554;PMS5003;58104;52.744;15.242;2023-09-07T05:14:46;32;30;
70554;PMS5003;58104;52.744;15.242;2023-09-07T05:17:12;32;32;
70554;PMS5003;58104;52.744;15.242;2023-09-07T05:19:37;32;32;
70554;PMS5003;58104;52.744;15.242;2023-09-07T05:22:03;29;28;
70554;PMS5003;58104;52.744;15.242;2023-09-07T05:24:29;28;28;
70554;PMS5003;58104;52.744;15.242;2023-09-07T05:26:54;34;33;
70554;PMS5003;58104;52.744;15.242;2023-09-07T05:29:19;28;26;
70554;PMS5003;58104;52.744;15.242;2023-09-07T05:31:45;30;30;
70554;PMS5003;58104;52.744;15.242;2023-09-07T05:34:11;31;31;
70554;PMS5003;58104;52.744;15.242;2023-09-07T05:36:36;26;25;
70554;PMS5003;58104;52.744;15.242;2023-09-07T05:39:01;28;28;
70554;PMS5003;58104;52.744;15.242;2023-09-07T05:41:27;33;33;
70554;PMS5003;58104;52.744;15.242;2023-09-07T05:43:52;29;29;
70554;PMS5003;58104;52.744;15.242;2023-09-07T05:46:18;38;36;
70554;PMS5003;58104;52.744;15.242;2023-09-07T05:48:44;28;28;
70554;PMS5003;58104;52.744;15.242;2023-09-07T05:51:09;30;30;
70554;PMS5003;58104;52.744;15.242;2023-09-07T05:53:34;32;32;
70554;PMS5003;58104;52.744;15.242;2023-09-07T05:56:00;32;31;
70554;PMS5003;58104;52.744;15.242;2023-09-07T05:58:25;28;25;
70554;PMS5003;58104;52.744;15.242;2023-09-07T06:00:50;30;28;
70554;PMS5003;58104;52.744;15.242;2023-09-07T06:03:16;32;29;
70554;PMS5003;58104;52.744;15.242;2023-09-07T06:05:41;37;29;
70554;PMS5003;58104;52.744;15.242;2023-09-07T06:08:07;28;26;
70554;PMS5003;58104;52.744;15.242;2023-09-07T06:10:33;29;28;
70554;PMS5003;58104;52.744;15.242;2023-09-07T06:12:58;26;24;
70554;PMS5003;58104;52.744;15.242;2023-09-07T06:15:23;31;26;
70554;PMS5003;58104;52.744;15.242;2023-09-07T06:17:48;28;28;
70554;PMS5003;58104;52.744;15.242;2023-09-07T06:20:14;30;29;
70554;PMS5003;58104;52.744;15.242;2023-09-07T06:22:39;31;29;
70554;PMS5003;58104;52.744;15.242;2023-09-07T06:25:05;30;28;
70554;PMS5003;58104;52.744;15.242;2023-09-07T06:27:30;33;30;
70554;PMS5003;58104;52.744;15.242;2023-09-07T06:29:56;31;30;
70554;PMS5003;58104;52.744;15.242;2023-09-07T06:32:21;32;31;
70554;PMS5003;58104;52.744;15.242;2023-09-07T06:34:47;31;31;
70554;PMS5003;58104;52.744;15.242;2023-09-07T06:37:12;34;34;
70554;PMS5003;58104;52.744;15.242;2023-09-07T06:39:38;32;29;
70554;PMS5003;58104;52.744;15.242;2023-09-07T06:42:03;31;31;
70554;PMS5003;58104;52.744;15.242;2023-09-07T06:44:29;34;26;
70554;PMS5003;58104;52.744;15.242;2023-09-07T06:46:54;27;27;
70554;PMS5003;58104;52.744;15.242;2023-09-07T06:49:20;31;30;
70554;PMS5003;58104;52.744;15.242;2023-09-07T06:51:45;32;29;
70554;PMS5003;58104;52.744;15.242;2023-09-07T06:54:10;30;28;
70554;PMS5003;58104;52.744;15.242;2023-09-07T06:56:36;33;30;
70554;PMS5003;58104;52.744;15.242;2023-09-07T06:59:01;30;28;
70554;PMS5003;58104;52.744;15.242;2023-09-07T07:01:27;27;26;
70554;PMS5003;58104;52.744;15.242;2023-09-07T07:03:52;25;23;
70554;PMS5003;58104;52.744;15.242;2023-09-07T07:06:18;27;24;
70554;PMS5003;58104;52.744;15.242;2023-09-07T07:08:43;32;30;
70554;PMS5003;58104;52.744;15.242;2023-09-07T07:11:08;21;21;
70554;PMS5003;58104;52.744;15.242;2023-09-07T07:13:34;21;21;
70554;PMS5003;58104;52.744;15.242;2023-09-07T07:15:59;24;23;
70554;PMS5003;58104;52.744;15.242;2023-09-07T07:18:24;23;22;
70554;PMS5003;58104;52.744;15.242;2023-09-07T07:20:50;23;22;
70554;PMS5003;58104;52.744;15.242;2023-09-07T07:23:16;23;23;
70554;PMS5003;58104;52.744;15.242;2023-09-07T07:25:41;28;28;
70554;PMS5003;58104;52.744;15.242;2023-09-07T07:28:07;23;21;
70554;PMS5003;58104;52.744;15.242;2023-09-07T07:30:32;23;21;
70554;PMS5003;58104;52.744;15.242;2023-09-07T07:32:57;25;24;
70554;PMS5003;58104;52.744;15.242;2023-09-07T07:35:23;25;25;
70554;PMS5003;58104;52.744;15.242;2023-09-07T07:37:49;24;22;
70554;PMS5003;58104;52.744;15.242;2023-09-07T07:40:14;27;26;
70554;PMS5003;58104;52.744;15.242;2023-09-07T07:42:39;25;22;
70554;PMS5003;58104;52.744;15.242;2023-09-07T07:45:05;22;20;
70554;PMS5003;58104;52.744;15.242;2023-09-07T07:47:30;24;23;
70554;PMS5003;58104;52.744;15.242;2023-09-07T07:49:56;23;23;
70554;PMS5003;58104;52.744;15.242;2023-09-07T07:52:21;31;26;
70554;PMS5003;58104;52.744;15.242;2023-09-07T07:54:46;23;23;
70554;PMS5003;58104;52.744;15.242;2023-09-07T07:57:11;27;27;
70554;PMS5003;58104;52.744;15.242;2023-09-07T07:59:37;24;23;
70554;PMS5003;58104;52.744;15.242;2023-09-07T08:02:02;23;22;
70554;PMS5003;58104;52.744;15.242;2023-09-07T08:04:27;30;28;
70554;PMS5003;58104;52.744;15.242;2023-09-07T08:06:53;31;28;
70554;PMS5003;58104;52.744;15.242;2023-09-07T08:09:19;24;24;
70554;PMS5003;58104;52.744;15.242;2023-09-07T08:11:45;27;25;
70554;PMS5003;58104;52.744;15.242;2023-09-07T08:14:10;28;27;
70554;PMS5003;58104;52.744;15.242;2023-09-07T08:16:35;26;24;
70554;PMS5003;58104;52.744;15.242;2023-09-07T08:19:00;23;23;
70554;PMS5003;58104;52.744;15.242;2023-09-07T08:21:25;26;23;
70554;PMS5003;58104;52.744;15.242;2023-09-07T08:23:51;22;22;
70554;PMS5003;58104;52.744;15.242;2023-09-07T08:26:17;23;23;
70554;PMS5003;58104;52.744;15.242;2023-09-07T08:28:42;24;24;
70554;PMS5003;58104;52.744;15.242;2023-09-07T08:31:07;26;24;
70554;PMS5003;58104;52.744;15.242;2023-09-07T08:33:33;24;22;
70554;PMS5003;58104;52.744;15.242;2023-09-07T08:35:58;23;22;
70554;PMS5003;58104;52.744;15.242;2023-09-07T08:38:24;22;22;
70554;PMS5003;58104;52.744;15.242;2023-09-07T08:40:49;26;26;
70554;PMS5003;58104;52.744;15.242;2023-09-07T08:43:15;22;22;
70554;PMS5003;58104;52.744;15.242;2023-09-07T08:45:41;22;21;
70554;PMS5003;58104;52.744;15.242;2023-09-07T08:48:06;28;26;
70554;PMS5003;58104;52.744;15.242;2023-09-07T08:50:31;26;26;
70554;PMS5003;58104;52.744;15.242;2023-09-07T08:52:56;26;23;
70554;PMS5003;58104;52.744;15.242;2023-09-07T08:55:22;24;22;
70554;PMS5003;58104;52.744;15.242;2023-09-07T08:57:46;23;22;
70554;PMS5003;58104;52.744;15.242;2023-09-07T09:00:12;22;22;
70554;PMS5003;58104;52.744;15.242;2023-09-07T09:02:37;27;24;
70554;PMS5003;58104;52.744;15.242;2023-09-07T09:05:02;25;24;
70554;PMS5003;58104;52.744;15.242;2023-09-07T09:07:28;23;23;
70554;PMS5003;58104;52.744;15.242;2023-09-07T09:12:18;28;27;
70554;PMS5003;58104;52.744;15.242;2023-09-07T09:14:44;23;20;
70554;PMS5003;58104;52.744;15.242;2023-09-07T09:17:11;23;23;
70554;PMS5003;58104;52.744;15.242;2023-09-07T09:19:35;23;22;
70554;PMS5003;58104;52.744;15.242;2023-09-07T09:22:00;22;21;
70554;PMS5003;58104;52.744;15.242;2023-09-07T09:24:25;29;26;
70554;PMS5003;58104;52.744;15.242;2023-09-07T09:26:50;22;21;
70554;PMS5003;58104;52.744;15.242;2023-09-07T09:29:15;22;22;
70554;PMS5003;58104;52.744;15.242;2023-09-07T09:31:41;23;23;
70554;PMS5003;58104;52.744;15.242;2023-09-07T09:34:06;24;24;
70554;PMS5003;58104;52.744;15.242;2023-09-07T09:36:33;24;21;
70554;PMS5003;58104;52.744;15.242;2023-09-07T09:38:57;23;23;
70554;PMS5003;58104;52.744;15.242;2023-09-07T09:41:22;24;23;
70554;PMS5003;58104;52.744;15.242;2023-09-07T09:43:48;21;20;
70554;PMS5003;58104;52.744;15.242;2023-09-07T09:46:13;22;22;
70554;PMS5003;58104;52.744;15.242;2023-09-07T09:48:38;26;23;
70554;PMS5003;58104;52.744;15.242;2023-09-07T09:51:03;20;20;
70554;PMS5003;58104;52.744;15.242;2023-09-07T09:53:28;20;20;
70554;PMS5003;58104;52.744;15.242;2023-09-07T09:55:54;27;25;
70554;PMS5003;58104;52.744;15.242;2023-09-07T09:58:19;25;24;
70554;PMS5003;58104;52.744;15.242;2023-09-07T10:00:45;22;22;
70554;PMS5003;58104;52.744;15.242;2023-09-07T10:03:12;27;26;
70554;PMS5003;58104;52.744;15.242;2023-09-07T10:05:36;24;24;
70554;PMS5003;58104;52.744;15.242;2023-09-07T10:08:02;22;22;
70554;PMS5003;58104;52.744;15.242;2023-09-07T10:10:31;24;24;
70554;PMS5003;58104;52.744;15.242;2023-09-07T10:12:52;25;25;
70554;PMS5003;58104;52.744;15.242;2023-09-07T10:15:23;24;23;
70554;PMS5003;58104;52.744;15.242;2023-09-07T10:17:43;24;23;
70554;PMS5003;58104;52.744;15.242;2023-09-07T10:20:08;24;24;
70554;PMS5003;58104;52.744;15.242;2023-09-07T10:22:34;23;23;
70554;PMS5003;58104;52.744;15.242;2023-09-07T10:24:58;23;23;
70554;PMS5003;58104;52.744;15.242;2023-09-07T10:27:24;22;21;
70554;PMS5003;58104;52.744;15.242;2023-09-07T10:29:50;22;21;
70554;PMS5003;58104;52.744;15.242;2023-09-07T10:32:15;28;25;
70554;PMS5003;58104;52.744;15.242;2023-09-07T10:34:41;23;21;
70554;PMS5003;58104;52.744;15.242;2023-09-07T10:37:06;24;22;
70554;PMS5003;58104;52.744;15.242;2023-09-07T10:39:31;25;23;
70554;PMS5003;58104;52.744;15.242;2023-09-07T10:41:56;20;20;
70554;PMS5003;58104;52.744;15.242;2023-09-07T10:44:25;20;20;
70554;PMS5003;58104;52.744;15.242;2023-09-07T10:46:47;19;19;
70554;PMS5003;58104;52.744;15.242;2023-09-07T10:49:12;22;22;
70554;PMS5003;58104;52.744;15.242;2023-09-07T10:51:41;22;20;
70554;PMS5003;58104;52.744;15.242;2023-09-07T10:54:06;18;18;
70554;PMS5003;58104;52.744;15.242;2023-09-07T10:56:29;24;23;
70554;PMS5003;58104;52.744;15.242;2023-09-07T10:58:54;21;21;
70554;PMS5003;58104;52.744;15.242;2023-09-07T11:01:20;21;20;
70554;PMS5003;58104;52.744;15.242;2023-09-07T11:03:45;23;19;
70554;PMS5003;58104;52.744;15.242;2023-09-07T11:06:11;19;18;
70554;PMS5003;58104;52.744;15.242;2023-09-07T11:08:36;24;24;
70554;PMS5003;58104;52.744;15.242;2023-09-07T11:11:01;20;20;
70554;PMS5003;58104;52.744;15.242;2023-09-07T11:13:27;17;17;
70554;PMS5003;58104;52.744;15.242;2023-09-07T11:15:53;19;18;
70554;PMS5003;58104;52.744;15.242;2023-09-07T11:18:19;19;17;
70554;PMS5003;58104;52.744;15.242;2023-09-07T11:20:43;25;21;
70554;PMS5003;58104;52.744;15.242;2023-09-07T11:23:08;23;23;
70554;PMS5003;58104;52.744;15.242;2023-09-07T11:25:34;19;19;
70554;PMS5003;58104;52.744;15.242;2023-09-07T11:27:59;26;24;
70554;PMS5003;58104;52.744;15.242;2023-09-07T11:30:24;19;17;
70554;PMS5003;58104;52.744;15.242;2023-09-07T11:32:49;20;20;
70554;PMS5003;58104;52.744;15.242;2023-09-07T11:35:15;20;18;
70554;PMS5003;58104;52.744;15.242;2023-09-07T11:37:40;19;19;
70554;PMS5003;58104;52.744;15.242;2023-09-07T11:40:06;26;24;
70554;PMS5003;58104;52.744;15.242;2023-09-07T11:42:31;23;22;
70554;PMS5003;58104;52.744;15.242;2023-09-07T11:44:56;18;17;
70554;PMS5003;58104;52.744;15.242;2023-09-07T11:47:22;21;21;
70554;PMS5003;58104;52.744;15.242;2023-09-07T11:49:47;18;18;
70554;PMS5003;58104;52.744;15.242;2023-09-07T11:52:12;24;20;
70554;PMS5003;58104;52.744;15.242;2023-09-07T11:54:38;18;18;
70554;PMS5003;58104;52.744;15.242;2023-09-07T11:57:03;19;19;
70554;PMS5003;58104;52.744;15.242;2023-09-07T11:59:28;21;20;
70554;PMS5003;58104;52.744;15.242;2023-09-07T12:01:53;19;19;
70554;PMS5003;58104;52.744;15.242;2023-09-07T12:04:19;21;21;
70554;PMS5003;58104;52.744;15.242;2023-09-07T12:06:44;24;24;
70554;PMS5003;58104;52.744;15.242;2023-09-07T12:09:09;24;23;
70554;PMS5003;58104;52.744;15.242;2023-09-07T12:11:35;22;20;
70554;PMS5003;58104;52.744;15.242;2023-09-07T12:14:00;21;21;
70554;PMS5003;58104;52.744;15.242;2023-09-07T12:16:26;26;26;
70554;PMS5003;58104;52.744;15.242;2023-09-07T12:18:50;25;24;
70554;PMS5003;58104;52.744;15.242;2023-09-07T12:21:16;23;23;
70554;PMS5003;58104;52.744;15.242;2023-09-07T12:23:41;31;28;
70554;PMS5003;58104;52.744;15.242;2023-09-07T12:26:07;20;20;
70554;PMS5003;58104;52.744;15.242;2023-09-07T12:28:32;21;21;
70554;PMS5003;58104;52.744;15.242;2023-09-07T12:30:57;22;20;
70554;PMS5003;58104;52.744;15.242;2023-09-07T12:33:22;21;20;
70554;PMS5003;58104;52.744;15.242;2023-09-07T12:35:47;23;23;
70554;PMS5003;58104;52.744;15.242;2023-09-07T12:38:13;23;21;
70554;PMS5003;58104;52.744;15.242;2023-09-07T12:40:38;22;21;
70554;PMS5003;58104;52.744;15.242;2023-09-07T12:43:04;25;24;
70554;PMS5003;58104;52.744;15.242;2023-09-07T12:45:29;24;22;
70554;PMS5003;58104;52.744;15.242;2023-09-07T12:47:54;25;24;
70554;PMS5003;58104;52.744;15.242;2023-09-07T12:50:20;23;23;
70554;PMS5003;58104;52.744;15.242;2023-09-07T12:52:45;25;25;
70554;PMS5003;58104;52.744;15.242;2023-09-07T12:55:10;29;25;
70554;PMS5003;58104;52.744;15.242;2023-09-07T12:57:35;26;24;
70554;PMS5003;58104;52.744;15.242;2023-09-07T13:00:01;23;22;
70554;PMS5003;58104;52.744;15.242;2023-09-07T13:02:25;21;20;
70554;PMS5003;58104;52.744;15.242;2023-09-07T13:04:51;19;19;
70554;PMS5003;58104;52.744;15.242;2023-09-07T13:07:16;24;23;
70554;PMS5003;58104;52.744;15.242;2023-09-07T13:09:42;18;18;
70554;PMS5003;58104;52.744;15.242;2023-09-07T13:12:07;22;21;
70554;PMS5003;58104;52.744;15.242;2023-09-07T13:14:32;22;21;
70554;PMS5003;58104;52.744;15.242;2023-09-07T13:16:58;22;22;
70554;PMS5003;58104;52.744;15.242;2023-09-07T13:19:23;18;18;
70554;PMS5003;58104;52.744;15.242;2023-09-07T13:21:49;24;22;
70554;PMS5003;58104;52.744;15.242;2023-09-07T13:24:14;18;18;
70554;PMS5003;58104;52.744;15.242;2023-09-07T13:26:39;23;21;
70554;PMS5003;58104;52.744;15.242;2023-09-07T13:29:05;20;20;
70554;PMS5003;58104;52.744;15.242;2023-09-07T13:31:30;25;23;
70554;PMS5003;58104;52.744;15.242;2023-09-07T13:33:55;17;17;
70554;PMS5003;58104;52.744;15.242;2023-09-07T13:36:21;27;25;
70554;PMS5003;58104;52.744;15.242;2023-09-07T13:38:46;19;19;
70554;PMS5003;58104;52.744;15.242;2023-09-07T13:41:12;19;19;
70554;PMS5003;58104;52.744;15.242;2023-09-07T13:43:37;20;18;
70554;PMS5003;58104;52.744;15.242;2023-09-07T13:46:02;23;22;
70554;PMS5003;58104;52.744;15.242;2023-09-07T13:48:28;19;18;
70554;PMS5003;58104;52.744;15.242;2023-09-07T13:50:53;20;19;
70554;PMS5003;58104;52.744;15.242;2023-09-07T13:53:18;20;20;
70554;PMS5003;58104;52.744;15.242;2023-09-07T13:55:43;20;19;
70554;PMS5003;58104;52.744;15.242;2023-09-07T13:58:09;21;20;
70554;PMS5003;58104;52.744;15.242;2023-09-07T14:00:33;19;19;
70554;PMS5003;58104;52.744;15.242;2023-09-07T14:02:59;22;21;
70554;PMS5003;58104;52.744;15.242;2023-09-07T14:05:25;19;17;
70554;PMS5003;58104;52.744;15.242;2023-09-07T14:07:50;20;20;
70554;PMS5003;58104;52.744;15.242;2023-09-07T14:10:15;22;21;
70554;PMS5003;58104;52.744;15.242;2023-09-07T14:12:40;21;20;
70554;PMS5003;58104;52.744;15.242;2023-09-07T14:15:06;19;19;
70554;PMS5003;58104;52.744;15.242;2023-09-07T14:17:31;23;20;
70554;PMS5003;58104;52.744;15.242;2023-09-07T14:19:56;23;23;
70554;PMS5003;58104;52.744;15.242;2023-09-07T14:22:22;19;18;
70554;PMS5003;58104;52.744;15.242;2023-09-07T14:24:47;23;21;
70554;PMS5003;58104;52.744;15.242;2023-09-07T14:27:12;23;23;
70554;PMS5003;58104;52.744;15.242;2023-09-07T14:29:37;26;26;
70554;PMS5003;58104;52.744;15.242;2023-09-07T14:32:03;18;18;
70554;PMS5003;58104;52.744;15.242;2023-09-07T14:34:28;21;21;
70554;PMS5003;58104;52.744;15.242;2023-09-07T14:36:53;25;22;
70554;PMS5003;58104;52.744;15.242;2023-09-07T14:39:19;24;23;
70554;PMS5003;58104;52.744;15.242;2023-09-07T14:41:44;22;22;
70554;PMS5003;58104;52.744;15.242;2023-09-07T14:44:09;22;20;
70554;PMS5003;58104;52.744;15.242;2023-09-07T14:46:35;20;20;
70554;PMS5003;58104;52.744;15.242;2023-09-07T14:49:00;20;20;
70554;PMS5003;58104;52.744;15.242;2023-09-07T14:51:26;18;18;
70554;PMS5003;58104;52.744;15.242;2023-09-07T14:53:51;19;19;
70554;PMS5003;58104;52.744;15.242;2023-09-07T14:56:16;21;19;
70554;PMS5003;58104;52.744;15.242;2023-09-07T14:58:41;18;17;
70554;PMS5003;58104;52.744;15.242;2023-09-07T15:01:07;24;18;
70554;PMS5003;58104;52.744;15.242;2023-09-07T15:03:32;20;17;
70554;PMS5003;58104;52.744;15.242;2023-09-07T15:05:58;22;20;
70554;PMS5003;58104;52.744;15.242;2023-09-07T15:08:23;21;21;
70554;PMS5003;58104;52.744;15.242;2023-09-07T15:10:49;20;20;
70554;PMS5003;58104;52.744;15.242;2023-09-07T15:13:14;21;20;
70554;PMS5003;58104;52.744;15.242;2023-09-07T15:15:40;21;19;
70554;PMS5003;58104;52.744;15.242;2023-09-07T15:18:05;19;19;
70554;PMS5003;58104;52.744;15.242;2023-09-07T15:20:30;22;22;
70554;PMS5003;58104;52.744;15.242;2023-09-07T15:22:56;17;17;
70554;PMS5003;58104;52.744;15.242;2023-09-07T15:25:21;23;23;
70554;PMS5003;58104;52.744;15.242;2023-09-07T15:27:47;19;17;
70554;PMS5003;58104;52.744;15.242;2023-09-07T15:30:12;19;19;
70554;PMS5003;58104;52.744;15.242;2023-09-07T15:32:38;21;19;
70554;PMS5003;58104;52.744;15.242;2023-09-07T15:35:03;17;17;
70554;PMS5003;58104;52.744;15.242;2023-09-07T15:37:28;19;19;
70554;PMS5003;58104;52.744;15.242;2023-09-07T15:39:53;18;18;
70554;PMS5003;58104;52.744;15.242;2023-09-07T15:42:18;16;16;
70554;PMS5003;58104;52.744;15.242;2023-09-07T15:44:43;22;19;
70554;PMS5003;58104;52.744;15.242;2023-09-07T15:47:09;19;19;
70554;PMS5003;58104;52.744;15.242;2023-09-07T15:49:34;24;21;
70554;PMS5003;58104;52.744;15.242;2023-09-07T15:51:59;21;21;
70554;PMS5003;58104;52.744;15.242;2023-09-07T15:54:25;17;16;